Decoded Metar for LFMY (SALON in FRANCE) (IATA:N/A) | Meteo·Mobile Aviation Weather
aviador You're here:

LFMY Decoded Metar

SALON in FRANCE
Report Time2019-01-19 06:30:00
UTC Time2019-01-19 07:00:32
Flight Rules vfr VFR
WindCalm
Visibility9999 m
Phenomena:N/A
Clouds:N/A
Expected CloudBase > 800 ft AGL from Temp-Dew spread
CeilingNone
Temp-1°C (ISA -16)
Dew Point-3°C (86% RH)
AAT-3.4°C
QNH1014 hPa
Density Alt-1,680 ft
Elevation197 ft
Report Wrong Elevation
Raw Report
METAR LFMY 190630Z AUTO 00000KT CAVOK M01/M03 Q1014=

Extra information for LFMY:More info

Metar Taf Metar & Taf Last 4 Metars F.Rules Stats Wind Profile Meteogram Temp Stats Airport Information Weather charts Add Link Nearby VenuesMetar ALERT Operation Metar Decoded Social comments